Wellingborough, United Kingdom
Current Conditions -  °F | °C
As of 11:20 AM on Sunday 23 Nov 2014 (Local Time) from EGTC Reporting Station
Light Rain Light Rain  
Wind Chill: 41°   Ceiling: Unl
Heat Index: 45°   Visibility: 5mi
Dew Point: 45°   Wind: 6mph
Humidity: 100%   Direction: 360°N
Pressure: 30.03"   Gusts: NA
Location:  52.3°N, 0.69°W
Report Text: EGTC 231120Z 36005KT 320V020 8000 -RA FEW010 07/07 Q1017
Loading
Personal Weather Stations






























Interactive Weather Map New forecast layout! Learn more

10-Day Weather Forecast

Advertisements
Track Severe Weather on mobile